Time;durP1;ratioP1;P1;durP2;ratioP2;P2;SDS_P1;SDS_P2;PMS_P1;PMS_P2;Temp;Humidity;BMP_temperature;BMP_pressure;BME280_temperature;BME280_humidity;BME280_pressure;Samples;Min_cycle;Max_cycle;Signal;HPM_P1;HPM_P2
2022/09/26 00:01:21;;;;;;;;;;;17.20;99.90;;;;;;5119614;27;20391;-80
2022/09/26 00:03:49;;;;;;;;;;;17.20;99.90;;;;;;5118344;27;19938;-81
2022/09/26 00:06:16;;;;;;;;;;;17.10;99.90;;;;;;5114552;27;19979;-81
2022/09/26 00:08:42;;;;;;;;;;;17.20;99.90;;;;;;5115973;27;19916;-81
2022/09/26 00:11:09;;;;;;;;;;;17.20;99.90;;;;;;5121959;27;19952;-80
2022/09/26 00:13:36;;;;;;;;;;;17.10;99.90;;;;;;5130162;27;19923;-81
2022/09/26 00:16:02;;;;;;;;;;;17.20;99.90;;;;;;5130169;27;19908;-80
2022/09/26 00:18:27;;;;;;;;;;;17.20;99.90;;;;;;5127177;28;19912;-80
2022/09/26 00:21:00;;;;;;;;;;;17.20;99.90;;;;;;5126323;28;19908;-81
2022/09/26 00:23:26;;;;;;;;;;;17.20;99.90;;;;;;5125476;28;19908;-80
2022/09/26 00:25:56;;;;;;;;;;;17.20;99.90;;;;;;5124155;28;19911;-81
2022/09/26 00:28:22;;;;;;;;;;;17.20;99.90;;;;;;5130492;27;19935;-80
2022/09/26 00:30:48;;;;;;;;;;;17.20;99.90;;;;;;5112236;28;19987;-80
2022/09/26 00:33:14;;;;;;;;;;;17.20;99.90;;;;;;5115889;27;20203;-80
2022/09/26 00:35:40;;;;;;;;;;;17.20;99.90;;;;;;5110769;27;19920;-80
2022/09/26 00:38:05;;;;;;;;;;;17.30;99.90;;;;;;5126819;27;19911;-80
2022/09/26 00:40:31;;;;;;;;;;;17.20;99.90;;;;;;5112354;28;19927;-80
2022/09/26 00:42:58;;;;;;;;;;;17.30;99.90;;;;;;5110994;28;19919;-80
2022/09/26 00:45:26;;;;;;;;;;;17.30;99.90;;;;;;5122854;28;19923;-80
2022/09/26 00:47:58;;;;;;;;;;;17.30;99.90;;;;;;5125992;28;19912;-80
2022/09/26 00:50:28;;;;;;;;;;;17.30;99.90;;;;;;5132717;28;19912;-80
2022/09/26 00:53:12;;;;;;;;;;;17.40;99.90;;;;;;5150712;27;19918;-80
2022/09/26 00:55:45;;;;;;;;;;;17.30;99.90;;;;;;5112535;28;19911;-80
2022/09/26 00:58:13;;;;;;;;;;;17.40;99.90;;;;;;5116412;28;19920;-81
2022/09/26 01:00:39;;;;;;;;;;;17.40;99.90;;;;;;5109902;28;19912;-81
2022/09/26 01:03:05;;;;;;;;;;;17.40;99.90;;;;;;5115064;28;19911;-80
2022/09/26 01:05:31;;;;;;;;;;;17.30;99.90;;;;;;5109748;28;19924;-80
2022/09/26 01:08:00;;;;;;;;;;;17.30;99.90;;;;;;5112002;28;20270;-80
2022/09/26 01:10:27;;;;;;;;;;;17.30;99.90;;;;;;5114504;28;19919;-80
2022/09/26 01:12:54;;;;;;;;;;;17.30;99.90;;;;;;5112881;28;19916;-80
2022/09/26 01:15:20;;;;;;;;;;;17.30;99.90;;;;;;5131785;27;19915;-79
2022/09/26 01:17:46;;;;;;;;;;;17.30;99.90;;;;;;5114218;28;19912;-79
2022/09/26 01:20:33;;;;;;;;;;;17.20;99.90;;;;;;5126740;28;20012;-79
2022/09/26 01:23:01;;;;;;;;;;;17.20;99.90;;;;;;5145490;27;20252;-80
2022/09/26 01:25:33;;;;;;;;;;;17.20;99.90;;;;;;5139926;27;19919;-79
2022/09/26 01:27:59;;;;;;;;;;;17.40;99.90;;;;;;5123572;28;19908;-80
2022/09/26 01:30:26;;;;;;;;;;;17.40;99.90;;;;;;5117428;28;19915;-80
2022/09/26 01:32:51;;;;;;;;;;;17.30;99.90;;;;;;5115444;28;20010;-80
2022/09/26 01:35:36;;;;;;;;;;;17.30;99.90;;;;;;5109953;27;20000;-80
2022/09/26 01:38:20;;;;;;;;;;;17.30;99.90;;;;;;5107752;28;19933;-80
2022/09/26 01:41:01;;;;;;;;;;;17.30;99.90;;;;;;5121339;27;19912;-80
2022/09/26 01:43:30;;;;;;;;;;;17.30;99.90;;;;;;5126360;27;19935;-80
2022/09/26 01:46:02;;;;;;;;;;;17.30;99.90;;;;;;5125458;27;19930;-80
2022/09/26 01:48:38;;;;;;;;;;;17.20;99.90;;;;;;5115490;27;19926;-80
2022/09/26 01:51:23;;;;;;;;;;;17.10;99.90;;;;;;5120083;27;19912;-80
2022/09/26 01:53:49;;;;;;;;;;;17.10;99.90;;;;;;5117164;27;19946;-80
2022/09/26 01:56:23;;;;;;;;;;;17.10;99.90;;;;;;5115520;27;19916;-81
2022/09/26 01:58:55;;;;;;;;;;;17.20;99.90;;;;;;5112498;27;19920;-80
2022/09/26 02:01:22;;;;;;;;;;;17.10;99.90;;;;;;5114024;27;19947;-81
2022/09/26 02:03:52;;;;;;;;;;;17.10;99.90;;;;;;5117061;27;19912;-80
2022/09/26 02:06:24;;;;;;;;;;;17.10;99.90;;;;;;5127877;27;19915;-80
2022/09/26 02:09:02;;;;;;;;;;;17.10;99.90;;;;;;5142647;27;19922;-81
2022/09/26 02:11:28;;;;;;;;;;;17.10;99.90;;;;;;5133250;27;19913;-81
2022/09/26 02:14:05;;;;;;;;;;;17.10;99.90;;;;;;5129740;27;19942;-81
2022/09/26 02:16:31;;;;;;;;;;;17.10;99.90;;;;;;5116716;27;19941;-81
2022/09/26 02:18:59;;;;;;;;;;;17.10;99.90;;;;;;5114233;27;19924;-81
2022/09/26 02:21:25;;;;;;;;;;;17.10;99.90;;;;;;5113975;27;19919;-81
2022/09/26 02:23:51;;;;;;;;;;;17.10;99.90;;;;;;5113059;27;19976;-81
2022/09/26 02:26:18;;;;;;;;;;;17.20;99.90;;;;;;5117822;27;19926;-80
2022/09/26 02:28:45;;;;;;;;;;;17.30;99.90;;;;;;5119565;27;19923;-81
2022/09/26 02:31:12;;;;;;;;;;;17.20;99.90;;;;;;5112921;27;19912;-80
2022/09/26 02:33:40;;;;;;;;;;;17.10;99.90;;;;;;5112196;27;19979;-80
2022/09/26 02:36:09;;;;;;;;;;;17.10;99.90;;;;;;5114445;27;19973;-80
2022/09/26 02:38:34;;;;;;;;;;;17.10;99.90;;;;;;5110658;27;20271;-80
2022/09/26 02:41:06;;;;;;;;;;;17.10;99.90;;;;;;5114550;27;19965;-80
2022/09/26 02:43:43;;;;;;;;;;;17.10;99.90;;;;;;5115807;27;19911;-79
2022/09/26 02:46:21;;;;;;;;;;;17.10;99.90;;;;;;5108170;27;19967;-80
2022/09/26 02:49:05;;;;;;;;;;;17.00;99.90;;;;;;5118253;28;19916;-81
2022/09/26 02:51:50;;;;;;;;;;;17.10;99.90;;;;;;5115722;28;19912;-81
2022/09/26 02:54:38;;;;;;;;;;;17.10;99.90;;;;;;5127156;27;19964;-80
2022/09/26 02:57:18;;;;;;;;;;;17.10;99.90;;;;;;5109316;27;19959;-79
2022/09/26 02:59:50;;;;;;;;;;;17.00;99.90;;;;;;5116739;27;19933;-79
2022/09/26 03:02:21;;;;;;;;;;;16.90;99.90;;;;;;5123071;27;19919;-80
2022/09/26 03:04:50;;;;;;;;;;;16.90;99.90;;;;;;5125466;27;19937;-80
2022/09/26 03:07:23;;;;;;;;;;;16.90;99.90;;;;;;5114295;27;19931;-80
2022/09/26 03:09:53;;;;;;;;;;;17.00;99.90;;;;;;5125685;27;19911;-80
2022/09/26 03:12:20;;;;;;;;;;;17.00;99.90;;;;;;5117179;27;20377;-80
2022/09/26 03:14:48;;;;;;;;;;;16.90;99.90;;;;;;5111423;27;19920;-79
2022/09/26 03:17:20;;;;;;;;;;;16.90;99.90;;;;;;5109106;27;19927;-80
2022/09/26 03:19:52;;;;;;;;;;;16.80;99.90;;;;;;5110881;28;19978;-80
2022/09/26 03:22:18;;;;;;;;;;;16.80;99.90;;;;;;5106000;27;19919;-80
2022/09/26 03:24:44;;;;;;;;;;;16.70;99.90;;;;;;5108260;28;19918;-80
2022/09/26 03:27:13;;;;;;;;;;;16.70;99.90;;;;;;5109753;27;19927;-79
2022/09/26 03:29:39;;;;;;;;;;;16.70;99.90;;;;;;5100320;27;20377;-80
2022/09/26 03:32:05;;;;;;;;;;;16.80;99.90;;;;;;5133428;27;19919;-79
2022/09/26 03:34:31;;;;;;;;;;;16.80;99.90;;;;;;5117132;27;19942;-80
2022/09/26 03:36:57;;;;;;;;;;;16.90;99.90;;;;;;5108095;27;19915;-80
2022/09/26 03:39:23;;;;;;;;;;;16.90;99.90;;;;;;5115933;27;19953;-81
2022/09/26 03:41:48;;;;;;;;;;;17.00;99.90;;;;;;5110554;27;19942;-80
2022/09/26 03:44:14;;;;;;;;;;;17.00;99.90;;;;;;5112227;27;19946;-80
2022/09/26 03:46:41;;;;;;;;;;;16.90;99.90;;;;;;5114320;27;19941;-80
2022/09/26 03:49:07;;;;;;;;;;;16.90;99.90;;;;;;5111491;27;19935;-79
2022/09/26 03:51:39;;;;;;;;;;;16.90;99.90;;;;;;5110434;28;19912;-80
2022/09/26 03:54:05;;;;;;;;;;;16.90;99.90;;;;;;5111569;27;19912;-79
2022/09/26 03:56:30;;;;;;;;;;;17.00;99.90;;;;;;5111418;27;19915;-79
2022/09/26 03:58:57;;;;;;;;;;;17.10;99.90;;;;;;5111998;27;20299;-80
2022/09/26 04:01:23;;;;;;;;;;;17.10;99.90;;;;;;5121922;27;19912;-79
2022/09/26 04:03:49;;;;;;;;;;;17.20;99.90;;;;;;5114858;27;20338;-80
2022/09/26 04:06:18;;;;;;;;;;;17.30;99.90;;;;;;5113557;27;19924;-79
2022/09/26 04:08:45;;;;;;;;;;;17.20;99.90;;;;;;5107691;28;19996;-79
2022/09/26 04:11:18;;;;;;;;;;;17.30;99.90;;;;;;5111672;27;22015;-79
2022/09/26 04:13:44;;;;;;;;;;;17.20;99.90;;;;;;5127153;27;19912;-81
2022/09/26 04:16:19;;;;;;;;;;;17.20;99.90;;;;;;5153978;27;19915;-79
2022/09/26 04:18:44;;;;;;;;;;;17.20;99.90;;;;;;5125453;27;19951;-79
2022/09/26 04:21:14;;;;;;;;;;;17.10;99.90;;;;;;5110432;27;19919;-79
2022/09/26 04:23:44;;;;;;;;;;;17.10;99.90;;;;;;5108752;28;19920;-80
2022/09/26 04:26:11;;;;;;;;;;;17.10;99.90;;;;;;5109780;28;19920;-79
2022/09/26 04:28:37;;;;;;;;;;;17.10;99.90;;;;;;5109920;27;19924;-79
2022/09/26 04:31:03;;;;;;;;;;;17.00;99.90;;;;;;5105786;28;20071;-79
2022/09/26 04:33:31;;;;;;;;;;;17.00;99.90;;;;;;5119240;27;19916;-80
2022/09/26 04:36:01;;;;;;;;;;;16.90;99.90;;;;;;5135761;27;19996;-79
2022/09/26 04:38:32;;;;;;;;;;;16.90;99.90;;;;;;5108788;28;19939;-79
2022/09/26 04:41:04;;;;;;;;;;;16.70;99.90;;;;;;5111239;28;19993;-79
2022/09/26 04:43:30;;;;;;;;;;;16.60;99.90;;;;;;5109901;28;19920;-80
2022/09/26 04:45:56;;;;;;;;;;;16.50;99.90;;;;;;5112786;28;19916;-80
2022/09/26 04:48:22;;;;;;;;;;;16.50;99.90;;;;;;5112709;28;19958;-81
2022/09/26 04:50:48;;;;;;;;;;;16.50;99.90;;;;;;5113273;27;20427;-80
2022/09/26 04:53:15;;;;;;;;;;;16.50;99.90;;;;;;5111565;28;20026;-81
2022/09/26 04:55:44;;;;;;;;;;;16.50;99.90;;;;;;5115070;28;19919;-81
2022/09/26 04:58:10;;;;;;;;;;;16.50;99.90;;;;;;5113325;28;19920;-80
2022/09/26 05:00:44;;;;;;;;;;;16.50;99.90;;;;;;5115275;28;19941;-80
2022/09/26 05:03:12;;;;;;;;;;;16.50;99.90;;;;;;5111161;28;19918;-80
2022/09/26 05:05:42;;;;;;;;;;;16.50;99.90;;;;;;5111910;28;20384;-80
2022/09/26 05:08:09;;;;;;;;;;;16.40;99.90;;;;;;5111910;28;19920;-80
2022/09/26 05:10:35;;;;;;;;;;;16.50;99.90;;;;;;5129982;27;19911;-81
2022/09/26 05:13:02;;;;;;;;;;;16.50;99.90;;;;;;5136510;27;19911;-80
2022/09/26 05:15:28;;;;;;;;;;;16.50;99.90;;;;;;5126467;28;19926;-81
2022/09/26 05:18:00;;;;;;;;;;;16.50;99.90;;;;;;5128566;27;19923;-81
2022/09/26 05:20:30;;;;;;;;;;;16.50;99.90;;;;;;5117862;28;19991;-71
2022/09/26 05:23:04;;;;;;;;;;;16.50;99.90;;;;;;5117416;27;19980;-71
2022/09/26 05:28:18;;;;;;;;;;;16.60;99.90;;;;;;5109953;27;20320;-71
2022/09/26 05:30:44;;;;;;;;;;;16.60;99.90;;;;;;5107638;27;19912;-71
2022/09/26 05:33:12;;;;;;;;;;;16.60;99.90;;;;;;5106789;27;19926;-70
2022/09/26 05:35:38;;;;;;;;;;;16.60;99.90;;;;;;5108463;27;19916;-71
2022/09/26 05:38:04;;;;;;;;;;;16.70;99.90;;;;;;5117595;27;19920;-71
2022/09/26 05:43:17;;;;;;;;;;;16.60;99.90;;;;;;5105812;27;20407;-71
2022/09/26 05:45:44;;;;;;;;;;;16.70;99.90;;;;;;5104443;27;19955;-71
2022/09/26 05:48:10;;;;;;;;;;;16.70;99.90;;;;;;5102137;27;19969;-71
2022/09/26 05:50:35;;;;;;;;;;;16.70;99.90;;;;;;5107235;27;19947;-73
2022/09/26 05:53:01;;;;;;;;;;;16.70;99.90;;;;;;5110809;27;20052;-71
2022/09/26 05:55:28;;;;;;;;;;;16.70;99.90;;;;;;5104513;27;19923;-72
2022/09/26 05:57:59;;;;;;;;;;;16.70;99.90;;;;;;5103858;27;20058;-72
2022/09/26 06:00:26;;;;;;;;;;;16.90;99.90;;;;;;5107024;28;19916;-72
2022/09/26 06:02:58;;;;;;;;;;;17.00;99.90;;;;;;5106641;27;20410;-72
2022/09/26 06:05:24;;;;;;;;;;;17.00;99.90;;;;;;5105460;27;19911;-72
2022/09/26 06:07:51;;;;;;;;;;;17.00;99.90;;;;;;5106168;27;19957;-72
2022/09/26 06:10:17;;;;;;;;;;;16.90;99.90;;;;;;5104888;27;20000;-72
2022/09/26 06:12:43;;;;;;;;;;;17.00;99.90;;;;;;5108401;27;20256;-71
2022/09/26 06:15:09;;;;;;;;;;;17.00;99.90;;;;;;5103207;27;19930;-71
2022/09/26 06:17:35;;;;;;;;;;;17.00;99.90;;;;;;5110775;27;20353;-72
2022/09/26 06:20:01;;;;;;;;;;;17.00;99.90;;;;;;5113082;27;20550;-72
2022/09/26 06:22:27;;;;;;;;;;;17.10;99.90;;;;;;5104444;27;20620;-71
2022/09/26 06:24:53;;;;;;;;;;;17.30;99.90;;;;;;5104159;27;19931;-71
2022/09/26 06:27:19;;;;;;;;;;;17.30;99.90;;;;;;5118128;27;19916;-71
2022/09/26 06:29:45;;;;;;;;;;;17.30;99.90;;;;;;5104714;27;19968;-72
2022/09/26 06:32:11;;;;;;;;;;;17.40;99.90;;;;;;5107669;27;20003;-70
2022/09/26 06:34:36;;;;;;;;;;;17.40;99.90;;;;;;5104934;27;20033;-70
2022/09/26 06:37:02;;;;;;;;;;;17.30;99.90;;;;;;5104127;27;20015;-72
2022/09/26 06:39:34;;;;;;;;;;;17.30;99.90;;;;;;5103958;27;20317;-72
2022/09/26 06:42:02;;;;;;;;;;;17.40;99.90;;;;;;5106040;27;19957;-71
2022/09/26 06:44:28;;;;;;;;;;;17.40;99.90;;;;;;5103329;27;19912;-71
2022/09/26 06:46:54;;;;;;;;;;;17.40;99.90;;;;;;5101738;27;19922;-71
2022/09/26 06:49:19;;;;;;;;;;;17.60;99.90;;;;;;5101486;27;20249;-71
2022/09/26 06:51:45;;;;;;;;;;;17.60;99.90;;;;;;5109774;27;20497;-72
2022/09/26 06:54:11;;;;;;;;;;;17.60;99.90;;;;;;5102682;27;19916;-71
2022/09/26 06:56:37;;;;;;;;;;;17.60;99.90;;;;;;5102569;27;19919;-72
2022/09/26 06:59:02;;;;;;;;;;;17.70;99.90;;;;;;5106023;27;20249;-73
2022/09/26 07:01:28;;;;;;;;;;;17.80;99.90;;;;;;5112600;27;19962;-71
2022/09/26 07:03:53;;;;;;;;;;;17.80;99.90;;;;;;5122531;27;20666;-72
2022/09/26 07:06:19;;;;;;;;;;;17.90;99.90;;;;;;5101435;27;20280;-72
2022/09/26 07:08:45;;;;;;;;;;;17.90;99.90;;;;;;5099851;27;19922;-72
2022/09/26 07:11:10;;;;;;;;;;;17.80;99.90;;;;;;5101366;27;19912;-71
2022/09/26 07:13:36;;;;;;;;;;;17.90;99.90;;;;;;5104282;27;19912;-72
2022/09/26 07:16:02;;;;;;;;;;;17.90;99.90;;;;;;5105003;27;19911;-73
2022/09/26 07:18:28;;;;;;;;;;;18.00;99.90;;;;;;5104983;27;19916;-72
2022/09/26 07:20:54;;;;;;;;;;;18.10;99.90;;;;;;5105624;27;20277;-73
2022/09/26 07:23:19;;;;;;;;;;;18.10;99.90;;;;;;5103311;28;19912;-71
2022/09/26 07:25:45;;;;;;;;;;;18.20;99.90;;;;;;5114989;27;19920;-72
2022/09/26 07:28:11;;;;;;;;;;;18.30;99.90;;;;;;5102845;27;19963;-71
2022/09/26 07:30:37;;;;;;;;;;;18.40;99.90;;;;;;5101713;27;19915;-72
2022/09/26 07:33:04;;;;;;;;;;;18.60;99.90;;;;;;5102831;27;19920;-71
2022/09/26 07:35:30;;;;;;;;;;;18.70;99.90;;;;;;5104082;27;19927;-71
2022/09/26 07:37:57;;;;;;;;;;;19.00;99.90;;;;;;5094987;27;19919;-72
2022/09/26 07:40:22;;;;;;;;;;;19.10;99.90;;;;;;5100838;27;20327;-73
2022/09/26 07:42:50;;;;;;;;;;;19.30;99.90;;;;;;5101747;27;20015;-72
2022/09/26 07:45:15;;;;;;;;;;;19.50;99.90;;;;;;5105767;27;21184;-72
2022/09/26 07:50:25;;;;;;;;;;;19.70;99.90;;;;;;5108382;27;20011;-71
2022/09/26 07:52:51;;;;;;;;;;;19.80;99.90;;;;;;5128120;27;19950;-71
2022/09/26 07:55:23;;;;;;;;;;;19.90;99.90;;;;;;5122803;27;19962;-77
2022/09/26 07:57:49;;;;;;;;;;;20.00;99.90;;;;;;5113384;27;19927;-74
2022/09/26 08:00:16;;;;;;;;;;;20.10;99.90;;;;;;5109620;27;19918;-71
2022/09/26 08:02:44;;;;;;;;;;;20.30;99.90;;;;;;5111953;27;19908;-70
2022/09/26 08:05:10;;;;;;;;;;;20.30;99.90;;;;;;5122938;27;19919;-72
2022/09/26 08:07:36;;;;;;;;;;;20.30;99.90;;;;;;5116492;27;19951;-72
2022/09/26 08:10:06;;;;;;;;;;;20.30;99.90;;;;;;5115898;27;19919;-71
2022/09/26 08:12:36;;;;;;;;;;;20.30;99.90;;;;;;5115452;27;19962;-72
2022/09/26 08:15:05;;;;;;;;;;;20.20;99.90;;;;;;5122247;27;19919;-71
2022/09/26 08:17:33;;;;;;;;;;;20.30;99.90;;;;;;5111536;27;19908;-71
2022/09/26 08:19:59;;;;;;;;;;;20.30;99.90;;;;;;5110549;27;19918;-72
2022/09/26 08:22:25;;;;;;;;;;;20.50;99.90;;;;;;5128475;27;19907;-73
2022/09/26 08:24:52;;;;;;;;;;;20.50;99.90;;;;;;5120905;27;19908;-73
2022/09/26 08:27:18;;;;;;;;;;;20.70;99.90;;;;;;5112109;28;19919;-72
2022/09/26 08:29:47;;;;;;;;;;;20.90;99.90;;;;;;5111399;28;19908;-71
2022/09/26 08:32:13;;;;;;;;;;;21.00;99.90;;;;;;5111353;28;19935;-72
2022/09/26 08:34:39;;;;;;;;;;;21.00;99.90;;;;;;5113535;27;20364;-72
2022/09/26 08:37:05;;;;;;;;;;;21.00;99.90;;;;;;5110777;27;20018;-72
2022/09/26 08:39:31;;;;;;;;;;;21.00;99.90;;;;;;5103217;27;19926;-71
2022/09/26 08:42:03;;;;;;;;;;;20.90;99.90;;;;;;5108816;27;19999;-72
2022/09/26 08:44:41;;;;;;;;;;;20.70;99.90;;;;;;5101809;28;20459;-72
2022/09/26 08:47:16;;;;;;;;;;;20.70;99.90;;;;;;5116958;27;19920;-72
2022/09/26 08:50:01;;;;;;;;;;;20.70;99.90;;;;;;5119869;27;19918;-72
2022/09/26 08:52:48;;;;;;;;;;;20.90;99.90;;;;;;5117925;27;19918;-72
2022/09/26 08:55:20;;;;;;;;;;;21.10;99.90;;;;;;5132647;28;19998;-72
2022/09/26 08:57:57;;;;;;;;;;;21.30;99.90;;;;;;5122468;27;19912;-71
2022/09/26 09:00:24;;;;;;;;;;;21.30;99.90;;;;;;5118074;28;19949;-72
2022/09/26 09:03:10;;;;;;;;;;;21.30;99.90;;;;;;5118673;27;19923;-72
2022/09/26 09:05:40;;;;;;;;;;;21.10;99.90;;;;;;5125669;27;19911;-72
2022/09/26 09:08:11;;;;;;;;;;;21.00;99.90;;;;;;5130471;27;19939;-71
2022/09/26 09:10:44;;;;;;;;;;;20.90;99.90;;;;;;5113115;28;19912;-71
2022/09/26 09:13:23;;;;;;;;;;;21.00;99.90;;;;;;5111272;28;20002;-71
2022/09/26 09:16:01;;;;;;;;;;;21.30;99.90;;;;;;5108401;28;19912;-74
2022/09/26 09:18:36;;;;;;;;;;;21.30;99.90;;;;;;5110895;28;20543;-71
2022/09/26 09:21:11;;;;;;;;;;;21.40;99.90;;;;;;5116304;27;19927;-71
2022/09/26 09:23:37;;;;;;;;;;;21.50;99.90;;;;;;5107476;28;19920;-72
2022/09/26 09:26:13;;;;;;;;;;;21.70;99.90;;;;;;5118845;28;19920;-72
2022/09/26 09:28:39;;;;;;;;;;;21.60;99.90;;;;;;5114482;28;19999;-71
2022/09/26 09:31:10;;;;;;;;;;;21.60;99.90;;;;;;5109553;28;19991;-71
2022/09/26 09:33:41;;;;;;;;;;;21.60;99.90;;;;;;5107556;28;19916;-74
2022/09/26 09:36:09;;;;;;;;;;;21.40;99.90;;;;;;5117072;28;19967;-73
2022/09/26 09:38:36;;;;;;;;;;;21.50;99.90;;;;;;5114738;27;19912;-74
2022/09/26 09:41:07;;;;;;;;;;;21.50;99.90;;;;;;5120098;28;19911;-74
2022/09/26 09:43:39;;;;;;;;;;;21.60;99.90;;;;;;5120655;28;19994;-74
2022/09/26 09:46:27;;;;;;;;;;;21.60;99.90;;;;;;5112889;27;19923;-74
2022/09/26 09:49:09;;;;;;;;;;;21.70;99.90;;;;;;5136075;27;19915;-73
2022/09/26 09:51:53;;;;;;;;;;;21.90;99.90;;;;;;5117180;27;19927;-74
2022/09/26 09:54:19;;;;;;;;;;;21.90;99.90;;;;;;5120433;28;19915;-73
2022/09/26 09:56:52;;;;;;;;;;;21.90;99.90;;;;;;5124236;27;20378;-73
2022/09/26 09:59:29;;;;;;;;;;;21.90;99.90;;;;;;5113002;28;19934;-73
2022/09/26 10:02:18;;;;;;;;;;;22.00;99.90;;;;;;5122638;27;19915;-73
2022/09/26 10:05:02;;;;;;;;;;;21.90;99.90;;;;;;5104170;28;19951;-73
2022/09/26 10:07:28;;;;;;;;;;;21.60;99.90;;;;;;5112599;28;20330;-73
2022/09/26 10:09:54;;;;;;;;;;;21.40;99.90;;;;;;5120066;27;19918;-73
2022/09/26 10:12:21;;;;;;;;;;;21.30;99.90;;;;;;5115147;28;19912;-73
2022/09/26 10:14:53;;;;;;;;;;;21.40;99.90;;;;;;5112905;27;20128;-73
2022/09/26 10:17:20;;;;;;;;;;;21.40;99.90;;;;;;5111236;27;20341;-73
2022/09/26 10:19:46;;;;;;;;;;;21.40;99.90;;;;;;5112759;27;19991;-73
2022/09/26 10:22:25;;;;;;;;;;;21.40;99.90;;;;;;5115031;27;19912;-73
2022/09/26 10:24:52;;;;;;;;;;;21.50;99.90;;;;;;5123231;27;19907;-73
2022/09/26 10:27:36;;;;;;;;;;;21.40;99.90;;;;;;5114504;27;20291;-73
2022/09/26 10:30:17;;;;;;;;;;;21.30;99.90;;;;;;5120177;27;19919;-74
2022/09/26 10:32:45;;;;;;;;;;;21.30;99.90;;;;;;5111234;27;20028;-73
2022/09/26 10:35:23;;;;;;;;;;;21.30;99.90;;;;;;5128039;27;19916;-73
2022/09/26 10:37:56;;;;;;;;;;;21.30;99.90;;;;;;5113132;27;20248;-73
2022/09/26 10:40:45;;;;;;;;;;;21.30;99.90;;;;;;5104546;27;19923;-73
2022/09/26 10:43:29;;;;;;;;;;;21.40;99.90;;;;;;5113400;27;19912;-74
2022/09/26 10:46:00;;;;;;;;;;;21.30;99.90;;;;;;5141019;27;19959;-73
2022/09/26 10:48:46;;;;;;;;;;;21.20;99.90;;;;;;5121773;27;19908;-73
2022/09/26 10:51:27;;;;;;;;;;;21.10;99.90;;;;;;5117759;27;19951;-73
2022/09/26 10:53:56;;;;;;;;;;;21.00;99.90;;;;;;5113202;27;19935;-73
2022/09/26 10:56:25;;;;;;;;;;;21.00;99.90;;;;;;5112222;27;20018;-73
2022/09/26 10:58:56;;;;;;;;;;;21.10;99.90;;;;;;5114830;27;19915;-73
2022/09/26 11:01:25;;;;;;;;;;;21.10;99.90;;;;;;5109199;27;20399;-73
2022/09/26 11:03:54;;;;;;;;;;;21.20;99.90;;;;;;5118407;27;20313;-73
2022/09/26 11:06:25;;;;;;;;;;;21.20;99.90;;;;;;5121487;27;19924;-73
2022/09/26 11:08:52;;;;;;;;;;;21.10;99.90;;;;;;5120995;27;20451;-73
2022/09/26 11:11:20;;;;;;;;;;;21.20;99.90;;;;;;5111128;27;19912;-74
2022/09/26 11:13:55;;;;;;;;;;;21.20;99.90;;;;;;5119197;27;19957;-74
2022/09/26 11:16:20;;;;;;;;;;;21.30;99.90;;;;;;5115260;27;19963;-74
2022/09/26 11:18:50;;;;;;;;;;;21.60;99.90;;;;;;5121947;27;19947;-73
2022/09/26 11:21:21;;;;;;;;;;;21.70;99.90;;;;;;5125979;27;19912;-73
2022/09/26 11:24:01;;;;;;;;;;;21.90;99.90;;;;;;5114628;27;19968;-73
2022/09/26 11:26:32;;;;;;;;;;;22.00;99.90;;;;;;5114427;27;19946;-74
2022/09/26 11:29:02;;;;;;;;;;;22.10;99.90;;;;;;5114623;27;20288;-74
2022/09/26 11:31:29;;;;;;;;;;;22.20;99.90;;;;;;5112916;28;20292;-73
2022/09/26 11:33:58;;;;;;;;;;;22.30;99.90;;;;;;5114910;28;20008;-73
2022/09/26 11:36:30;;;;;;;;;;;22.60;99.90;;;;;;5114012;27;19919;-74
2022/09/26 11:38:56;;;;;;;;;;;22.60;99.90;;;;;;5120045;27;20457;-73
2022/09/26 11:41:42;;;;;;;;;;;22.60;99.90;;;;;;5111431;28;19964;-73
2022/09/26 11:44:23;;;;;;;;;;;22.50;99.90;;;;;;5116428;27;19912;-73
2022/09/26 11:46:54;;;;;;;;;;;22.10;99.90;;;;;;5115935;27;19916;-73
2022/09/26 11:49:20;;;;;;;;;;;21.90;99.90;;;;;;5127267;27;19927;-73
2022/09/26 11:51:46;;;;;;;;;;;21.90;99.90;;;;;;5117366;27;20049;-73
2022/09/26 11:54:22;;;;;;;;;;;22.00;99.90;;;;;;5116500;28;20008;-73
2022/09/26 11:56:52;;;;;;;;;;;21.90;99.90;;;;;;5119572;27;19911;-73
2022/09/26 11:59:37;;;;;;;;;;;21.90;99.90;;;;;;5113645;27;19919;-74
2022/09/26 12:02:18;;;;;;;;;;;21.70;99.90;;;;;;5116420;28;19931;-73
2022/09/26 12:04:44;;;;;;;;;;;21.30;99.90;;;;;;5113777;28;19912;-73
2022/09/26 12:07:25;;;;;;;;;;;21.20;99.90;;;;;;5116868;28;20288;-73
2022/09/26 12:09:54;;;;;;;;;;;21.00;99.90;;;;;;5118221;27;19912;-74
2022/09/26 12:12:33;;;;;;;;;;;21.00;99.90;;;;;;5120611;27;19908;-73
2022/09/26 12:15:07;;;;;;;;;;;20.90;99.90;;;;;;5119911;27;19912;-73
2022/09/26 12:17:48;;;;;;;;;;;20.70;99.90;;;;;;5114486;27;20002;-73
2022/09/26 12:20:32;;;;;;;;;;;20.60;99.90;;;;;;5115538;28;19911;-73
2022/09/26 12:23:07;;;;;;;;;;;20.60;99.90;;;;;;5114351;28;19952;-73
2022/09/26 12:25:35;;;;;;;;;;;20.50;99.90;;;;;;5112493;28;20265;-73
2022/09/26 12:28:07;;;;;;;;;;;20.50;99.90;;;;;;5115390;28;19939;-74
2022/09/26 12:30:36;;;;;;;;;;;20.50;99.90;;;;;;5115729;27;20327;-73
2022/09/26 12:33:03;;;;;;;;;;;20.50;99.90;;;;;;5117890;27;19922;-73
2022/09/26 12:35:47;;;;;;;;;;;20.70;99.90;;;;;;5114576;27;19919;-73
2022/09/26 12:38:31;;;;;;;;;;;20.80;99.90;;;;;;5111712;27;20353;-73
2022/09/26 12:41:13;;;;;;;;;;;20.80;99.90;;;;;;5121053;27;19965;-74
2022/09/26 12:43:45;;;;;;;;;;;20.70;99.90;;;;;;5110511;27;20345;-73
2022/09/26 12:46:20;;;;;;;;;;;20.50;99.90;;;;;;5134824;27;20285;-73
2022/09/26 12:49:00;;;;;;;;;;;20.50;99.90;;;;;;5112364;28;19963;-73
2022/09/26 12:51:29;;;;;;;;;;;20.50;99.90;;;;;;5115001;28;19973;-73
2022/09/26 12:54:17;;;;;;;;;;;20.60;99.90;;;;;;5121587;28;20002;-72
2022/09/26 12:56:56;;;;;;;;;;;20.50;99.90;;;;;;5107771;28;19912;-73
2022/09/26 12:59:42;;;;;;;;;;;20.40;99.90;;;;;;5110621;28;19917;-72
2022/09/26 13:02:07;;;;;;;;;;;20.40;99.90;;;;;;5126892;28;20006;-74
2022/09/26 13:04:53;;;;;;;;;;;20.40;99.90;;;;;;5121030;28;19943;-74
2022/09/26 13:07:28;;;;;;;;;;;20.40;99.90;;;;;;5059897;28;19916;-74
2022/09/26 13:10:20;;;;;;;;;;;20.50;99.90;;;;;;5111718;28;19919;-74
2022/09/26 13:12:55;;;;;;;;;;;20.50;99.90;;;;;;5109280;28;20414;-74
2022/09/26 13:15:31;;;;;;;;;;;20.60;99.90;;;;;;5107321;28;19911;-74
2022/09/26 13:18:04;;;;;;;;;;;20.50;99.90;;;;;;5118009;28;19908;-73
2022/09/26 13:20:39;;;;;;;;;;;20.40;99.90;;;;;;5113433;28;19912;-74
2022/09/26 13:23:17;;;;;;;;;;;20.40;99.90;;;;;;5113856;28;19912;-74
2022/09/26 13:25:53;;;;;;;;;;;20.50;99.90;;;;;;5113670;28;19911;-75
2022/09/26 13:28:22;;;;;;;;;;;20.50;99.90;;;;;;5107415;28;20414;-74
2022/09/26 13:30:52;;;;;;;;;;;20.40;99.90;;;;;;5110395;27;19984;-74
2022/09/26 13:33:21;;;;;;;;;;;20.40;99.90;;;;;;5120237;27;19954;-74
2022/09/26 13:35:50;;;;;;;;;;;20.40;99.90;;;;;;5109271;28;19918;-75
2022/09/26 13:38:34;;;;;;;;;;;20.40;99.90;;;;;;5115416;27;19916;-75
2022/09/26 13:41:02;;;;;;;;;;;20.40;99.90;;;;;;5124727;27;19918;-75
2022/09/26 13:43:28;;;;;;;;;;;20.60;99.90;;;;;;5116479;27;19939;-74
2022/09/26 13:46:03;;;;;;;;;;;20.50;99.90;;;;;;5121695;27;19912;-74
2022/09/26 13:48:48;;;;;;;;;;;20.50;99.90;;;;;;5113266;27;19965;-74
2022/09/26 13:51:17;;;;;;;;;;;20.60;99.90;;;;;;5111565;27;20069;-75
2022/09/26 13:53:48;;;;;;;;;;;20.50;99.90;;;;;;5123006;27;20006;-75
2022/09/26 13:56:32;;;;;;;;;;;20.40;99.90;;;;;;5123864;27;19989;-74
2022/09/26 13:59:10;;;;;;;;;;;20.40;99.90;;;;;;5126324;27;20402;-75
2022/09/26 14:01:36;;;;;;;;;;;20.60;99.90;;;;;;5129361;27;19912;-75
2022/09/26 14:04:16;;;;;;;;;;;20.50;99.90;;;;;;5121057;27;20400;-75
2022/09/26 14:07:02;;;;;;;;;;;20.60;99.90;;;;;;5108722;27;19915;-75
2022/09/26 14:09:55;;;;;;;;;;;20.50;99.90;;;;;;5107886;27;19923;-75
2022/09/26 14:12:31;;;;;;;;;;;20.50;99.90;;;;;;5118758;28;19915;-74
2022/09/26 14:15:15;;;;;;;;;;;20.50;99.90;;;;;;5113697;28;20270;-75
2022/09/26 14:17:43;;;;;;;;;;;20.60;99.90;;;;;;5112778;28;19915;-75
2022/09/26 14:20:19;;;;;;;;;;;20.60;99.90;;;;;;5120909;27;20663;-74
2022/09/26 14:22:51;;;;;;;;;;;20.50;99.90;;;;;;5120821;27;19947;-74
2022/09/26 14:25:36;;;;;;;;;;;20.50;99.90;;;;;;5123098;27;19916;-74
2022/09/26 14:28:11;;;;;;;;;;;20.50;99.90;;;;;;5129188;27;20000;-74
2022/09/26 14:30:37;;;;;;;;;;;20.60;99.90;;;;;;5116356;27;19912;-74
2022/09/26 14:33:04;;;;;;;;;;;20.60;99.90;;;;;;5114251;27;19908;-74
2022/09/26 14:35:34;;;;;;;;;;;20.70;99.90;;;;;;5126767;27;19951;-74
2022/09/26 14:38:01;;;;;;;;;;;20.70;99.90;;;;;;5114479;28;19918;-74
2022/09/26 14:40:29;;;;;;;;;;;20.60;99.90;;;;;;5114389;27;19920;-75
2022/09/26 14:42:55;;;;;;;;;;;20.50;99.90;;;;;;5113083;27;20018;-74
2022/09/26 14:45:24;;;;;;;;;;;20.40;99.90;;;;;;5119458;27;20360;-74